createdAt,value
2022-11-17T00:01:37.865Z,7.62
2022-11-17T00:04:04.696Z,7.60
2022-11-17T00:06:31.380Z,7.57
2022-11-17T00:08:58.120Z,7.54
2022-11-17T00:11:25.828Z,7.50
2022-11-17T00:14:11.121Z,7.46
2022-11-17T00:16:37.856Z,7.41
2022-11-17T00:19:23.442Z,7.37
2022-11-17T00:21:50.189Z,7.32
2022-11-17T00:24:17.436Z,7.27
2022-11-17T00:27:02.420Z,7.22
2022-11-17T00:29:30.219Z,7.15
2022-11-17T00:32:15.752Z,7.09
2022-11-17T00:34:42.567Z,7.04
2022-11-17T00:37:10.771Z,6.97
2022-11-17T00:39:37.863Z,6.92
2022-11-17T00:42:04.698Z,6.87
2022-11-17T00:44:31.821Z,6.83
2022-11-17T00:46:58.540Z,6.80
2022-11-17T00:49:25.489Z,6.74
2022-11-17T00:51:56.754Z,6.72
2022-11-17T00:54:25.493Z,6.69
2022-11-17T00:56:52.289Z,6.69
2022-11-17T00:59:19.067Z,6.68
2022-11-17T01:01:45.912Z,6.68
2022-11-17T01:04:14.226Z,6.66
2022-11-17T01:06:49.076Z,6.64
2022-11-17T01:09:19.606Z,6.62
2022-11-17T01:11:47.833Z,6.60
2022-11-17T01:14:20.413Z,6.56
2022-11-17T01:16:47.281Z,6.49
2022-11-17T01:19:17.600Z,6.48
2022-11-17T01:21:44.527Z,6.46
2022-11-17T01:24:13.303Z,6.41
2022-11-17T01:26:41.217Z,6.41
2022-11-17T01:29:10.928Z,6.37
2022-11-17T01:31:40.003Z,6.33
2022-11-17T01:34:07.902Z,6.30
2022-11-17T01:36:55.592Z,6.26
2022-11-17T01:39:25.148Z,6.22
2022-11-17T01:41:53.276Z,6.20
2022-11-17T01:44:41.963Z,6.12
2022-11-17T01:47:17.779Z,6.08
2022-11-17T01:49:45.718Z,6.02
2022-11-17T01:52:13.157Z,5.99
2022-11-17T01:54:42.735Z,5.97
2022-11-17T01:57:15.038Z,5.99
2022-11-17T01:59:43.506Z,5.98
2022-11-17T02:02:10.490Z,5.99
2022-11-17T02:04:53.760Z,5.98
2022-11-17T02:07:28.733Z,5.97
2022-11-17T02:09:57.226Z,5.97
2022-11-17T02:12:27.260Z,5.95
2022-11-17T02:14:55.286Z,5.93
2022-11-17T02:17:25.829Z,5.91
2022-11-17T02:20:12.657Z,5.87
2022-11-17T02:23:25.693Z,5.86
2022-11-17T02:25:54.995Z,5.84
2022-11-17T02:28:32.070Z,5.80
2022-11-17T02:31:06.713Z,5.77
2022-11-17T02:33:59.921Z,5.75
2022-11-17T02:36:36.538Z,5.72
2022-11-17T02:39:22.540Z,5.68
2022-11-17T02:42:49.295Z,5.62
2022-11-17T02:45:25.049Z,5.58
2022-11-17T02:47:54.942Z,5.54
2022-11-17T02:50:28.378Z,5.50
2022-11-17T02:52:55.907Z,5.46
2022-11-17T02:55:22.707Z,5.41
2022-11-17T02:57:49.914Z,5.36
2022-11-17T03:03:19.943Z,5.22
2022-11-17T03:06:04.192Z,5.19
2022-11-17T03:08:40.052Z,5.18
2022-11-17T03:11:09.211Z,5.15
2022-11-17T03:13:49.507Z,5.13
2022-11-17T03:16:38.166Z,5.09
2022-11-17T03:19:29.501Z,5.05
2022-11-17T03:22:17.061Z,5.00
2022-11-17T03:24:49.567Z,4.97
2022-11-17T03:27:31.174Z,4.93
2022-11-17T03:30:02.166Z,4.93
2022-11-17T03:32:33.883Z,4.87
2022-11-17T03:35:08.423Z,4.83
2022-11-17T03:37:39.827Z,4.80
2022-11-17T03:40:10.965Z,4.75
2022-11-17T03:42:42.043Z,4.77
2022-11-17T03:45:20.368Z,4.76
2022-11-17T03:47:51.974Z,4.67
2022-11-17T03:50:25.352Z,4.58
2022-11-17T03:52:52.648Z,4.56
2022-11-17T03:55:19.602Z,4.59
2022-11-17T03:57:58.363Z,4.60
2022-11-17T04:00:25.483Z,4.51
2022-11-17T04:02:55.861Z,4.39
2022-11-17T04:05:22.818Z,4.28
2022-11-17T04:07:49.696Z,4.23
2022-11-17T04:10:25.934Z,4.24
2022-11-17T04:13:12.315Z,4.22
2022-11-17T04:15:57.388Z,4.18
2022-11-17T04:18:24.815Z,4.17
2022-11-17T04:20:53.618Z,4.12
2022-11-17T04:23:20.701Z,4.10
2022-11-17T04:26:10.752Z,4.12
2022-11-17T04:28:41.480Z,4.15
2022-11-17T04:31:20.075Z,4.11
2022-11-17T04:33:48.781Z,4.09
2022-11-17T04:36:18.231Z,4.11
2022-11-17T04:38:50.119Z,4.16
2022-11-17T04:41:37.608Z,4.14
2022-11-17T04:44:06.296Z,4.09
2022-11-17T04:46:34.879Z,4.10
2022-11-17T04:49:02.300Z,4.09
2022-11-17T04:51:32.678Z,4.08
2022-11-17T04:53:59.608Z,4.08
2022-11-17T04:56:27.721Z,4.06
2022-11-17T04:58:55.208Z,4.06
2022-11-17T05:01:23.725Z,4.08
2022-11-17T05:03:54.662Z,4.08
2022-11-17T05:06:36.014Z,4.08
2022-11-17T05:09:08.765Z,4.06
2022-11-17T05:11:54.111Z,4.06
2022-11-17T05:14:24.548Z,4.10
2022-11-17T05:17:11.036Z,4.16
2022-11-17T05:19:46.560Z,4.22
2022-11-17T05:22:37.176Z,4.24
2022-11-17T05:25:05.553Z,4.25
2022-11-17T05:27:34.019Z,4.28
2022-11-17T05:30:01.925Z,4.32
2022-11-17T05:32:28.673Z,4.30
2022-11-17T05:34:55.437Z,4.30
2022-11-17T05:37:22.194Z,4.26
2022-11-17T05:39:48.957Z,4.26
2022-11-17T05:42:15.871Z,4.27
2022-11-17T05:44:42.637Z,4.27
2022-11-17T05:47:09.345Z,4.25
2022-11-17T05:49:36.020Z,4.25
2022-11-17T05:52:02.780Z,4.21
2022-11-17T05:54:29.457Z,4.22
2022-11-17T05:57:02.382Z,4.21
2022-11-17T05:59:39.016Z,4.21
2022-11-17T06:02:14.966Z,4.23
2022-11-17T06:04:41.792Z,4.24
2022-11-17T06:07:08.659Z,4.25
2022-11-17T06:09:39.412Z,4.27
2022-11-17T06:12:06.651Z,4.27
2022-11-17T06:14:37.762Z,4.28
2022-11-17T06:17:11.799Z,4.29
2022-11-17T06:19:45.853Z,4.27
2022-11-17T06:22:13.642Z,4.28
2022-11-17T06:24:46.483Z,4.27
2022-11-17T06:27:16.667Z,4.26
2022-11-17T06:29:45.083Z,4.28
2022-11-17T06:32:14.603Z,4.28
2022-11-17T06:34:43.694Z,4.28
2022-11-17T06:37:11.498Z,4.31
2022-11-17T06:39:38.307Z,4.36
2022-11-17T06:42:05.057Z,4.36
2022-11-17T06:44:32.006Z,4.37
2022-11-17T06:46:58.704Z,4.36
2022-11-17T06:49:25.380Z,4.36
2022-11-17T06:51:53.274Z,4.39
2022-11-17T06:54:19.985Z,4.37
2022-11-17T06:56:46.999Z,4.37
2022-11-17T06:59:15.505Z,4.36
2022-11-17T07:01:42.615Z,4.37
2022-11-17T07:04:09.966Z,4.39
2022-11-17T07:06:37.672Z,4.40
2022-11-17T07:09:05.775Z,4.40
2022-11-17T07:11:34.548Z,4.39
2022-11-17T07:14:01.280Z,4.37
2022-11-17T07:16:29.316Z,4.35
2022-11-17T07:18:56.018Z,4.29
2022-11-17T07:21:22.782Z,4.29
2022-11-17T07:23:49.521Z,4.31
2022-11-17T07:26:16.233Z,4.30
2022-11-17T07:28:43.031Z,4.30
2022-11-17T07:31:09.864Z,4.29
2022-11-17T07:33:37.244Z,4.26
2022-11-17T07:36:10.072Z,4.25
2022-11-17T07:38:38.358Z,4.26
2022-11-17T07:41:06.908Z,4.24
2022-11-17T07:43:35.051Z,4.24
2022-11-17T07:46:11.221Z,4.22
2022-11-17T07:48:38.398Z,4.20
2022-11-17T07:51:06.383Z,4.17
2022-11-17T07:53:35.168Z,4.16
2022-11-17T07:56:10.468Z,4.13
2022-11-17T07:58:38.325Z,4.15
2022-11-17T08:01:10.867Z,4.13
2022-11-17T08:03:37.736Z,4.13
2022-11-17T08:06:06.432Z,4.12
2022-11-17T08:08:34.009Z,4.16
2022-11-17T08:11:08.157Z,4.17
2022-11-17T08:13:35.729Z,4.16
2022-11-17T08:16:02.765Z,4.18
2022-11-17T08:18:30.431Z,4.16
2022-11-17T08:21:11.501Z,4.12
2022-11-17T08:23:38.759Z,4.12
2022-11-17T08:26:08.295Z,4.13
2022-11-17T08:28:37.086Z,4.12
2022-11-17T08:31:06.166Z,4.11
2022-11-17T08:33:33.642Z,4.04
2022-11-17T08:36:02.040Z,4.00
2022-11-17T08:38:29.436Z,4.01
2022-11-17T08:41:03.832Z,4.01
2022-11-17T08:43:30.953Z,3.96
2022-11-17T08:45:57.732Z,3.95
2022-11-17T08:48:25.588Z,4.00
2022-11-17T08:50:52.598Z,3.93
2022-11-17T08:53:21.476Z,3.97
2022-11-17T08:55:48.284Z,3.98
2022-11-17T08:58:15.476Z,3.98
2022-11-17T09:00:43.130Z,4.00
2022-11-17T09:03:10.887Z,3.98
2022-11-17T09:05:42.927Z,3.97
2022-11-17T09:08:43.316Z,3.94
2022-11-17T09:10:56.589Z,3.95
2022-11-17T09:13:23.299Z,3.94
2022-11-17T09:15:50.186Z,3.96
2022-11-17T09:18:17.256Z,3.97
2022-11-17T09:20:45.886Z,3.96
2022-11-17T09:23:13.334Z,3.97
2022-11-17T09:25:40.147Z,4.02
2022-11-17T09:28:06.885Z,4.06
2022-11-17T09:30:34.924Z,4.13
2022-11-17T09:33:01.626Z,4.17
2022-11-17T09:35:28.419Z,4.20
2022-11-17T09:38:00.021Z,4.23
2022-11-17T09:40:29.093Z,4.24
2022-11-17T09:42:58.092Z,4.31
2022-11-17T09:45:34.335Z,4.39
2022-11-17T09:48:39.536Z,4.49
2022-11-17T09:51:00.024Z,4.56
2022-11-17T09:53:38.207Z,4.57
2022-11-17T09:56:09.052Z,4.50
2022-11-17T09:58:41.838Z,4.56
2022-11-17T10:01:19.974Z,4.64
2022-11-17T10:03:50.095Z,4.71
2022-11-17T10:06:23.898Z,4.82
2022-11-17T10:09:25.773Z,4.92
2022-11-17T10:11:57.676Z,4.94
2022-11-17T10:14:29.203Z,4.96
2022-11-17T10:16:58.896Z,5.01
2022-11-17T10:19:27.946Z,5.05
2022-11-17T10:22:11.863Z,5.10
2022-11-17T10:24:50.727Z,5.12
2022-11-17T10:27:17.432Z,5.22
2022-11-17T10:30:23.870Z,5.32
2022-11-17T10:32:56.124Z,5.39
2022-11-17T10:35:34.177Z,5.49
2022-11-17T10:38:08.517Z,5.53
2022-11-17T10:40:41.293Z,5.60
2022-11-17T10:43:14.063Z,5.67
2022-11-17T10:45:49.264Z,5.73
2022-11-17T10:48:20.225Z,5.76
2022-11-17T10:51:04.853Z,5.83
2022-11-17T10:53:44.820Z,5.90
2022-11-17T10:56:19.962Z,6.00
2022-11-17T10:59:17.813Z,5.99
2022-11-17T11:01:49.924Z,6.01
2022-11-17T11:04:33.438Z,6.05
2022-11-17T11:07:14.532Z,6.13
2022-11-17T11:10:09.503Z,6.14
2022-11-17T11:12:47.971Z,6.15
2022-11-17T11:15:23.394Z,6.11
2022-11-17T11:17:51.361Z,6.05
2022-11-17T11:20:24.138Z,6.05
2022-11-17T11:23:13.913Z,6.05
2022-11-17T11:25:58.020Z,6.06
2022-11-17T11:28:51.324Z,6.13
2022-11-17T11:31:39.695Z,6.16
2022-11-17T11:34:57.010Z,6.21
2022-11-17T11:37:34.494Z,6.24
2022-11-17T11:40:21.969Z,6.26
2022-11-17T11:42:58.319Z,6.31
2022-11-17T11:45:47.826Z,6.34
2022-11-17T11:48:24.825Z,6.40
2022-11-17T11:50:58.688Z,6.44
2022-11-17T11:53:54.806Z,6.48
2022-11-17T11:56:27.473Z,6.53
2022-11-17T11:59:07.051Z,6.55
2022-11-17T12:02:14.824Z,6.59
2022-11-17T12:04:51.385Z,6.59
2022-11-17T12:07:32.797Z,6.61
2022-11-17T12:10:20.676Z,6.64
2022-11-17T12:12:48.026Z,6.66
2022-11-17T12:15:20.878Z,6.68
2022-11-17T12:18:05.329Z,6.70
2022-11-17T12:20:32.068Z,6.68
2022-11-17T12:23:09.271Z,6.69
2022-11-17T12:25:43.679Z,6.73
2022-11-17T12:28:30.941Z,6.77
2022-11-17T12:30:58.967Z,6.79
2022-11-17T12:33:48.527Z,6.79
2022-11-17T12:36:30.555Z,6.79
2022-11-17T12:39:07.404Z,6.78
2022-11-17T12:41:49.086Z,6.77
2022-11-17T12:44:37.732Z,6.74
2022-11-17T12:47:24.242Z,6.70
2022-11-17T12:50:10.118Z,6.66
2022-11-17T12:53:09.181Z,6.63
2022-11-17T12:55:35.847Z,6.63
2022-11-17T12:58:40.156Z,6.62
2022-11-17T13:01:25.254Z,6.58
2022-11-17T13:04:03.146Z,6.54
2022-11-17T13:06:37.478Z,6.52
2022-11-17T13:09:27.064Z,6.50
2022-11-17T13:12:01.592Z,6.48
2022-11-17T13:14:28.379Z,6.50
2022-11-17T13:16:55.257Z,6.47
2022-11-17T13:19:42.434Z,6.49
2022-11-17T13:22:21.437Z,6.53
2022-11-17T13:24:50.733Z,6.55
2022-11-17T13:27:28.935Z,6.52
2022-11-17T13:30:16.328Z,6.51
2022-11-17T13:32:43.580Z,6.49
2022-11-17T13:35:36.044Z,6.52
2022-11-17T13:38:13.553Z,6.54
2022-11-17T13:40:42.554Z,6.56
2022-11-17T13:43:19.909Z,6.60
2022-11-17T13:45:52.072Z,6.62
2022-11-17T13:48:43.588Z,6.61
2022-11-17T13:51:28.945Z,6.60
2022-11-17T13:54:04.879Z,6.60
2022-11-17T13:56:36.681Z,6.63
2022-11-17T13:59:26.270Z,6.64
2022-11-17T14:02:20.838Z,6.64
2022-11-17T14:05:06.824Z,6.69
2022-11-17T14:07:36.376Z,6.71
2022-11-17T14:10:28.213Z,6.70
2022-11-17T14:13:00.925Z,6.67
2022-11-17T14:15:39.612Z,6.64
2022-11-17T14:18:28.198Z,6.61
2022-11-17T14:21:11.628Z,6.60
2022-11-17T14:23:38.646Z,6.64
2022-11-17T14:26:06.309Z,6.67
2022-11-17T14:28:33.154Z,6.63
2022-11-17T14:31:00.284Z,6.59
2022-11-17T14:33:27.064Z,6.52
2022-11-17T14:35:58.750Z,6.52
2022-11-17T14:38:25.536Z,6.52
2022-11-17T14:40:53.584Z,6.53
2022-11-17T14:43:21.590Z,6.52
2022-11-17T14:45:49.754Z,6.50
2022-11-17T14:48:19.550Z,6.48
2022-11-17T14:50:47.623Z,6.52
2022-11-17T14:53:14.482Z,6.49
2022-11-17T14:55:41.662Z,6.48
2022-11-17T14:58:10.021Z,6.47
2022-11-17T15:00:37.337Z,6.48
2022-11-17T15:03:04.393Z,6.48
2022-11-17T15:05:31.174Z,6.45
2022-11-17T15:07:58.031Z,6.43
2022-11-17T15:10:24.784Z,6.43
2022-11-17T15:12:51.568Z,6.43
2022-11-17T15:15:19.744Z,6.42
2022-11-17T15:17:46.496Z,6.39
2022-11-17T15:20:13.260Z,6.37
2022-11-17T15:22:40.010Z,6.36
2022-11-17T15:25:08.117Z,6.35
2022-11-17T15:27:34.874Z,6.34
2022-11-17T15:30:01.771Z,6.37
2022-11-17T15:32:28.749Z,6.38
2022-11-17T15:34:55.519Z,6.39
2022-11-17T15:37:22.328Z,6.39
2022-11-17T15:39:49.015Z,6.41
2022-11-17T15:42:15.718Z,6.40
2022-11-17T15:44:42.427Z,6.41
2022-11-17T15:47:09.107Z,6.44
2022-11-17T15:49:35.836Z,6.45
2022-11-17T15:52:02.552Z,6.47
2022-11-17T15:54:29.256Z,6.47
2022-11-17T15:56:55.965Z,6.48
2022-11-17T15:59:22.679Z,6.50
2022-11-17T16:01:49.825Z,6.47
2022-11-17T16:04:16.587Z,6.46
2022-11-17T16:06:45.684Z,6.46
2022-11-17T16:09:13.232Z,6.47
2022-11-17T16:11:41.113Z,6.47
2022-11-17T16:14:08.382Z,6.44
2022-11-17T16:16:37.550Z,6.42
2022-11-17T16:19:05.329Z,6.42
2022-11-17T16:21:32.405Z,6.41
2022-11-17T16:24:00.990Z,6.42
2022-11-17T16:26:29.828Z,6.40
2022-11-17T16:28:57.861Z,6.38
2022-11-17T16:31:27.201Z,6.37
2022-11-17T16:34:02.301Z,6.35
2022-11-17T16:36:36.274Z,6.31
2022-11-17T16:39:06.415Z,6.28
2022-11-17T16:41:35.621Z,6.27
2022-11-17T16:44:06.860Z,6.22
2022-11-17T16:46:33.669Z,6.18
2022-11-17T16:49:03.357Z,6.14
2022-11-17T16:51:30.323Z,6.12
2022-11-17T16:54:07.867Z,6.08
2022-11-17T16:56:34.947Z,6.04
2022-11-17T16:59:01.750Z,6.02
2022-11-17T17:01:30.790Z,6.01
2022-11-17T17:04:02.018Z,5.99
2022-11-17T17:06:29.366Z,5.99
2022-11-17T17:08:56.878Z,5.97
2022-11-17T17:11:24.639Z,5.94
2022-11-17T17:13:51.625Z,5.94
2022-11-17T17:16:19.907Z,5.92
2022-11-17T17:18:47.031Z,5.93
2022-11-17T17:21:17.173Z,5.91
2022-11-17T17:23:46.182Z,5.89
2022-11-17T17:26:17.587Z,5.87
2022-11-17T17:28:46.595Z,5.87
2022-11-17T17:31:20.941Z,5.86
2022-11-17T17:33:48.211Z,5.86
2022-11-17T17:36:17.732Z,5.86
2022-11-17T17:38:47.792Z,5.84
2022-11-17T17:41:20.152Z,5.81
2022-11-17T17:43:48.329Z,5.79
2022-11-17T17:46:17.341Z,5.78
2022-11-17T17:48:45.483Z,5.77
2022-11-17T17:51:14.844Z,5.75
2022-11-17T17:53:42.289Z,5.76
2022-11-17T17:56:14.481Z,5.72
2022-11-17T17:58:42.246Z,5.71
2022-11-17T18:01:14.370Z,5.67
2022-11-17T18:03:46.472Z,5.65
2022-11-17T18:06:16.672Z,5.64
2022-11-17T18:08:43.895Z,5.63
2022-11-17T18:11:13.489Z,5.60
2022-11-17T18:13:43.220Z,5.59
2022-11-17T18:16:12.790Z,5.57
2022-11-17T18:18:40.620Z,5.55
2022-11-17T18:21:10.100Z,5.50
2022-11-17T18:23:37.986Z,5.48
2022-11-17T18:26:25.563Z,5.44
2022-11-17T18:28:57.580Z,5.41
2022-11-17T18:31:26.992Z,5.39
2022-11-17T18:33:56.091Z,5.34
2022-11-17T18:36:23.238Z,5.32
2022-11-17T18:38:52.912Z,5.29
2022-11-17T18:41:21.281Z,5.28
2022-11-17T18:43:48.832Z,5.26
2022-11-17T18:46:23.535Z,5.25
2022-11-17T18:48:52.092Z,5.26
2022-11-17T18:51:21.680Z,5.25
2022-11-17T18:53:50.043Z,5.28
2022-11-17T18:56:21.112Z,5.25
2022-11-17T18:58:48.303Z,5.24
2022-11-17T19:01:20.505Z,5.22
2022-11-17T19:03:50.209Z,5.19
2022-11-17T19:06:18.170Z,5.19
2022-11-17T19:08:45.852Z,5.20
2022-11-17T19:11:13.228Z,5.20
2022-11-17T19:13:41.436Z,5.17
2022-11-17T19:16:29.159Z,5.15
2022-11-17T19:18:56.980Z,5.17
2022-11-17T19:21:33.642Z,5.16
2022-11-17T19:24:03.314Z,5.18
2022-11-17T19:26:35.977Z,5.17
2022-11-17T19:29:16.197Z,5.16
2022-11-17T19:31:43.870Z,5.15
2022-11-17T19:34:10.905Z,5.10
2022-11-17T19:36:37.610Z,5.08
2022-11-17T19:39:04.624Z,5.08
2022-11-17T19:41:36.736Z,5.09
2022-11-17T19:44:06.140Z,5.09
2022-11-17T19:46:33.945Z,5.11
2022-11-17T19:49:00.785Z,5.10
2022-11-17T19:51:29.468Z,5.07
2022-11-17T19:53:58.428Z,5.05
2022-11-17T19:56:26.341Z,5.04
2022-11-17T19:58:54.006Z,5.04
2022-11-17T20:01:28.918Z,5.00
2022-11-17T20:03:57.406Z,4.95
2022-11-17T20:06:27.451Z,4.93
2022-11-17T20:08:55.659Z,4.93
2022-11-17T20:11:25.937Z,4.88
2022-11-17T20:13:56.645Z,4.88
2022-11-17T20:16:26.069Z,4.89
2022-11-17T20:18:57.599Z,4.87
2022-11-17T20:21:25.833Z,4.87
2022-11-17T20:23:52.645Z,4.89
2022-11-17T20:26:25.627Z,4.88
2022-11-17T20:28:52.822Z,4.89
2022-11-17T20:31:28.379Z,4.92
2022-11-17T20:33:57.735Z,4.94
2022-11-17T20:36:24.577Z,4.96
2022-11-17T20:38:59.348Z,4.97
2022-11-17T20:41:26.665Z,4.95
2022-11-17T20:43:55.601Z,4.94
2022-11-17T20:46:23.403Z,4.95
2022-11-17T20:48:50.663Z,4.96
2022-11-17T20:51:22.357Z,4.97
2022-11-17T20:53:49.526Z,4.98
2022-11-17T20:56:17.063Z,4.98
2022-11-17T20:58:44.632Z,5.00
2022-11-17T21:01:12.741Z,5.01
2022-11-17T21:03:39.541Z,5.01
2022-11-17T21:06:06.531Z,5.00
2022-11-17T21:08:35.821Z,5.00
2022-11-17T21:11:05.790Z,5.00
2022-11-17T21:13:34.466Z,5.00
2022-11-17T21:16:12.886Z,5.01
2022-11-17T21:18:45.637Z,5.03
2022-11-17T21:21:12.605Z,5.04
2022-11-17T21:23:40.348Z,5.08
2022-11-17T21:26:09.160Z,5.09
2022-11-17T21:28:37.316Z,5.10
2022-11-17T21:31:11.262Z,5.11
2022-11-17T21:33:40.289Z,5.11
2022-11-17T21:36:11.992Z,5.13
2022-11-17T21:38:38.980Z,5.14
2022-11-17T21:41:16.683Z,5.15
2022-11-17T21:43:46.040Z,5.16
2022-11-17T21:46:15.338Z,5.13
2022-11-17T21:48:43.155Z,5.13
2022-11-17T21:51:18.651Z,5.11
2022-11-17T21:53:45.681Z,5.12
2022-11-17T21:56:12.963Z,5.11
2022-11-17T21:58:40.318Z,5.12
2022-11-17T22:01:12.956Z,5.13
2022-11-17T22:03:41.003Z,5.14
2022-11-17T22:06:13.476Z,5.16
2022-11-17T22:08:42.439Z,5.16
2022-11-17T22:11:11.962Z,5.16
2022-11-17T22:13:39.454Z,5.15
2022-11-17T22:16:09.823Z,5.14
2022-11-17T22:18:36.657Z,5.12
2022-11-17T22:21:04.449Z,5.12
2022-11-17T22:23:31.175Z,5.12
2022-11-17T22:26:00.582Z,5.13
2022-11-17T22:28:27.812Z,5.13
2022-11-17T22:30:54.873Z,5.13
2022-11-17T22:33:22.620Z,5.12
2022-11-17T22:35:50.277Z,5.14
2022-11-17T22:38:17.363Z,5.13
2022-11-17T22:40:44.181Z,5.15
2022-11-17T22:43:15.312Z,5.17
2022-11-17T22:45:42.865Z,5.18
2022-11-17T22:48:09.916Z,5.18
2022-11-17T22:50:36.897Z,5.17
2022-11-17T22:53:03.795Z,5.19
2022-11-17T22:55:32.636Z,5.21
2022-11-17T22:57:59.408Z,5.22
2022-11-17T23:00:26.244Z,5.23
2022-11-17T23:02:53.044Z,5.24
2022-11-17T23:05:19.907Z,5.24
2022-11-17T23:07:46.694Z,5.25
2022-11-17T23:10:13.585Z,5.27
2022-11-17T23:12:40.473Z,5.28
2022-11-17T23:15:08.149Z,5.27
2022-11-17T23:17:35.289Z,5.27
2022-11-17T23:20:02.075Z,5.27
2022-11-17T23:22:28.805Z,5.27
2022-11-17T23:24:55.546Z,5.27
2022-11-17T23:27:23.004Z,5.26
2022-11-17T23:29:50.080Z,5.28
2022-11-17T23:32:16.838Z,5.28
2022-11-17T23:34:43.599Z,5.29
2022-11-17T23:37:10.908Z,5.28
2022-11-17T23:39:37.828Z,5.31
2022-11-17T23:42:05.422Z,5.33
2022-11-17T23:44:32.152Z,5.37
2022-11-17T23:46:58.840Z,5.41
2022-11-17T23:49:25.666Z,5.46
2022-11-17T23:51:52.355Z,5.45
2022-11-17T23:54:19.143Z,5.48
2022-11-17T23:56:45.973Z,5.46
2022-11-17T23:59:12.692Z,5.45
